Time;durP1;ratioP1;P1;durP2;ratioP2;P2;SDS_P1;SDS_P2;PMS_P1;PMS_P2;Temp;Humidity;BMP_temperature;BMP_pressure;BME280_temperature;BME280_humidity;BME280_pressure;Samples;Min_cycle;Max_cycle;Signal;HPM_P1;HPM_P2
2023/03/15 00:01:59;;;;;;;13.35;8.57;;;10.40;99.90;;;;;;5040524;28;20240;-63
2023/03/15 00:04:48;;;;;;;13.55;8.88;;;10.40;99.90;;;;;;5030845;28;20322;-64
2023/03/15 00:07:36;;;;;;;11.77;8.68;;;10.40;99.90;;;;;;5042150;28;20213;-63
2023/03/15 00:10:25;;;;;;;12.40;8.70;;;10.30;99.90;;;;;;5038205;28;20248;-63
2023/03/15 00:13:15;;;;;;;12.45;8.95;;;10.40;99.90;;;;;;5038080;28;20229;-63
2023/03/15 00:16:05;;;;;;;14.43;9.10;;;10.40;99.90;;;;;;5032387;28;20225;-63
2023/03/15 00:18:56;;;;;;;13.68;8.85;;;10.40;99.90;;;;;;5037547;28;20865;-63
2023/03/15 00:21:44;;;;;;;14.23;9.48;;;10.40;99.90;;;;;;5045101;28;20714;-63
2023/03/15 00:24:33;;;;;;;12.80;9.52;;;10.50;99.90;;;;;;5036300;28;20229;-63
2023/03/15 00:27:22;;;;;;;13.68;8.63;;;10.50;99.90;;;;;;5042694;28;20224;-63
2023/03/15 00:30:11;;;;;;;13.45;9.32;;;10.50;99.90;;;;;;5043977;28;21170;-63
2023/03/15 00:33:04;;;;;;;11.85;8.75;;;10.50;99.90;;;;;;5024837;28;20255;-63
2023/03/15 00:35:54;;;;;;;12.75;8.88;;;10.60;99.90;;;;;;5037290;28;20355;-63
2023/03/15 00:38:43;;;;;;;13.82;9.95;;;10.50;99.90;;;;;;5037847;28;20231;-64
2023/03/15 00:41:32;;;;;;;16.48;10.80;;;10.50;99.90;;;;;;5042673;28;20219;-63
2023/03/15 00:47:25;;;;;;;13.98;10.02;;;10.50;99.90;;;;;;5035862;28;20296;-62
2023/03/15 00:50:14;;;;;;;11.55;7.95;;;10.40;99.90;;;;;;5040500;28;20228;-63
2023/03/15 00:53:04;;;;;;;5.40;4.07;;;10.30;99.90;;;;;;5031144;28;20276;-63
2023/03/15 00:55:53;;;;;;;6.93;3.40;;;9.80;99.90;;;;;;5031098;28;20561;-63
2023/03/15 00:58:42;;;;;;;3.05;2.28;;;9.50;99.90;;;;;;5019018;28;20229;-61
2023/03/15 01:01:31;;;;;;;2.33;1.60;;;9.30;99.90;;;;;;5034791;28;20704;-60
2023/03/15 01:04:20;;;;;;;1.85;1.27;;;8.90;99.90;;;;;;5039006;28;20229;-61
2023/03/15 01:07:11;;;;;;;1.35;1.23;;;8.40;99.90;;;;;;5033498;28;20229;-60
2023/03/15 01:10:02;;;;;;;1.10;1.00;;;8.10;99.90;;;;;;5024432;28;20233;-61
2023/03/15 01:12:51;;;;;;;1.50;1.20;;;7.90;99.90;;;;;;5027303;28;20986;-61
2023/03/15 01:15:40;;;;;;;2.15;1.30;;;7.70;99.90;;;;;;5026025;28;20794;-62
2023/03/15 01:18:29;;;;;;;2.17;1.10;;;7.60;99.90;;;;;;5028439;28;20291;-60
2023/03/15 01:21:18;;;;;;;2.55;1.10;;;7.50;99.90;;;;;;5022777;28;20260;-63
2023/03/15 01:24:13;;;;;;;2.03;1.00;;;7.40;99.90;;;;;;5037974;28;20232;-61
2023/03/15 01:27:03;;;;;;;1.65;1.10;;;7.20;99.90;;;;;;5042401;28;20229;-61
2023/03/15 01:29:52;;;;;;;1.77;1.20;;;7.00;99.90;;;;;;5029428;28;20252;-61
2023/03/15 01:32:41;;;;;;;1.42;1.23;;;6.80;99.90;;;;;;5042967;28;20216;-61
2023/03/15 01:35:29;;;;;;;1.73;1.10;;;6.80;99.90;;;;;;5027360;28;20221;-62
2023/03/15 01:38:18;;;;;;;2.42;1.40;;;6.90;99.90;;;;;;5035943;28;20259;-62
2023/03/15 01:41:07;;;;;;;3.95;1.40;;;6.60;99.90;;;;;;5039840;28;20236;-61
2023/03/15 01:43:57;;;;;;;1.40;1.10;;;6.60;99.90;;;;;;5036874;28;20227;-61
2023/03/15 01:46:46;;;;;;;3.30;1.05;;;6.80;99.90;;;;;;5028715;28;21692;-62
2023/03/15 01:49:43;;;;;;;2.03;1.20;;;6.50;99.90;;;;;;5039226;28;20803;-62
2023/03/15 01:52:37;;;;;;;2.40;1.40;;;6.50;99.90;;;;;;5035690;28;20220;-62
2023/03/15 01:55:26;;;;;;;1.60;1.00;;;6.60;99.90;;;;;;5017396;28;20236;-61
2023/03/15 01:58:26;;;;;;;1.87;1.20;;;6.60;99.90;;;;;;5024991;28;20315;-62
2023/03/15 02:01:19;;;;;;;1.23;1.00;;;6.60;99.90;;;;;;5020565;28;21065;-61
2023/03/15 02:04:13;;;;;;;2.63;1.30;;;6.50;99.90;;;;;;5021623;28;20331;-62
2023/03/15 02:07:05;;;;;;;2.33;1.30;;;6.30;99.90;;;;;;5022227;28;20244;-61
2023/03/15 02:10:01;;;;;;;1.87;1.20;;;6.20;99.90;;;;;;5043328;28;20217;-62
2023/03/15 02:12:52;;;;;;;2.23;1.13;;;6.40;99.90;;;;;;5018908;28;20221;-62
2023/03/15 02:15:47;;;;;;;2.27;1.30;;;6.30;99.90;;;;;;5028173;28;21025;-62
2023/03/15 02:18:45;;;;;;;2.43;1.30;;;6.40;99.90;;;;;;5035590;28;20321;-61
2023/03/15 02:21:45;;;;;;;3.67;1.43;;;6.20;99.90;;;;;;5035024;28;20232;-62
2023/03/15 02:24:45;;;;;;;1.90;1.20;;;6.20;99.90;;;;;;5035056;28;20273;-61
2023/03/15 02:27:36;;;;;;;5.00;1.40;;;6.30;99.90;;;;;;5018112;28;20746;-62
2023/03/15 02:30:25;;;;;;;3.90;1.03;;;6.20;99.90;;;;;;5024403;28;20921;-62
2023/03/15 02:33:20;;;;;;;3.07;1.20;;;6.20;99.90;;;;;;5024779;28;20235;-62
2023/03/15 02:36:17;;;;;;;5.17;1.30;;;6.20;99.90;;;;;;5040856;28;20343;-62
2023/03/15 02:39:15;;;;;;;3.00;1.10;;;6.10;99.90;;;;;;5036593;28;20224;-63
2023/03/15 02:42:06;;;;;;;2.87;1.40;;;6.20;99.90;;;;;;5022841;28;20221;-61
2023/03/15 02:44:57;;;;;;;4.10;1.20;;;6.10;99.90;;;;;;5037292;28;20220;-62
2023/03/15 02:47:49;;;;;;;5.37;1.60;;;6.00;99.90;;;;;;5037800;28;20274;-63
2023/03/15 02:50:38;;;;;;;2.80;1.13;;;5.90;99.90;;;;;;5032086;28;20220;-61
2023/03/15 02:53:27;;;;;;;4.40;1.10;;;6.00;99.90;;;;;;5038096;28;20307;-61
2023/03/15 02:56:16;;;;;;;4.70;1.30;;;6.00;99.90;;;;;;5022153;28;20232;-61
2023/03/15 02:59:04;;;;;;;2.87;1.20;;;6.10;99.90;;;;;;5033865;28;20245;-60
2023/03/15 03:01:55;;;;;;;5.20;1.50;;;6.00;99.90;;;;;;5054761;28;20249;-60
2023/03/15 03:04:44;;;;;;;4.93;1.47;;;6.20;99.90;;;;;;5056934;28;20216;-65
2023/03/15 03:07:33;;;;;;;5.43;1.27;;;6.20;99.90;;;;;;5058233;28;20221;-61
2023/03/15 03:10:25;;;;;;;5.70;1.53;;;6.30;99.90;;;;;;5057354;28;20220;-61
2023/03/15 03:13:16;;;;;;;3.60;1.30;;;6.30;99.90;;;;;;5048505;28;20246;-62
2023/03/15 03:16:06;;;;;;;3.23;1.30;;;6.20;99.90;;;;;;5045794;28;20231;-61
2023/03/15 03:18:56;;;;;;;4.63;1.33;;;6.20;99.90;;;;;;5044947;28;20228;-60
2023/03/15 03:21:45;;;;;;;5.27;1.40;;;6.10;99.90;;;;;;5057268;28;20223;-62
2023/03/15 03:24:34;;;;;;;4.13;1.20;;;6.20;99.90;;;;;;5059866;28;20238;-60
2023/03/15 03:27:22;;;;;;;6.00;1.40;;;6.30;99.90;;;;;;5046366;28;20630;-61
2023/03/15 03:30:13;;;;;;;5.30;1.63;;;6.30;99.90;;;;;;5045650;28;20726;-62
2023/03/15 03:33:08;;;;;;;4.27;1.23;;;6.30;99.90;;;;;;5046476;28;20216;-61
2023/03/15 03:36:03;;;;;;;3.80;1.40;;;6.30;99.90;;;;;;5046367;28;20222;-61
2023/03/15 03:38:53;;;;;;;6.73;1.30;;;6.30;99.90;;;;;;5049902;28;20223;-62
2023/03/15 03:41:42;;;;;;;3.90;1.67;;;6.30;99.90;;;;;;5060458;28;20237;-62
2023/03/15 03:44:33;;;;;;;3.70;1.57;;;6.30;99.90;;;;;;5049937;28;20351;-61
2023/03/15 03:47:21;;;;;;;7.57;1.80;;;6.40;99.90;;;;;;5068004;28;20242;-62
2023/03/15 03:50:11;;;;;;;3.50;1.47;;;6.30;99.90;;;;;;5044917;28;20263;-63
2023/03/15 03:53:02;;;;;;;5.17;1.90;;;6.20;99.90;;;;;;5049883;28;20761;-63
2023/03/15 03:55:54;;;;;;;5.97;2.00;;;6.40;99.90;;;;;;5050096;28;20548;-61
2023/03/15 03:58:44;;;;;;;7.33;1.80;;;6.50;99.90;;;;;;5053122;28;20230;-63
2023/03/15 04:01:40;;;;;;;5.30;2.20;;;6.50;99.90;;;;;;5039348;28;20229;-63
2023/03/15 04:04:31;;;;;;;3.33;1.90;;;6.50;99.90;;;;;;5046390;28;20679;-62
2023/03/15 04:07:20;;;;;;;7.33;2.20;;;6.50;99.90;;;;;;5053157;28;20306;-61
2023/03/15 04:10:13;;;;;;;6.13;2.37;;;6.50;99.90;;;;;;5056475;28;20222;-62
2023/03/15 04:13:05;;;;;;;4.97;2.30;;;6.50;99.90;;;;;;5050344;28;20229;-62
2023/03/15 04:15:56;;;;;;;6.07;2.60;;;6.50;99.90;;;;;;5042666;28;20580;-61
2023/03/15 04:18:48;;;;;;;6.70;2.70;;;6.50;99.90;;;;;;5051182;28;20215;-62
2023/03/15 04:21:37;;;;;;;8.07;2.57;;;6.50;99.90;;;;;;5054328;28;20237;-62
2023/03/15 04:25:06;;;;;;;6.93;2.67;;;6.40;99.90;;;;;;5001579;28;20232;-64
2023/03/15 04:28:10;;;;;;;6.07;2.90;;;6.60;99.90;;;;;;4998395;28;20249;-62
2023/03/15 04:31:15;;;;;;;6.97;3.07;;;6.50;99.90;;;;;;5048311;28;20227;-63
2023/03/15 04:34:30;;;;;;;7.43;3.30;;;6.30;99.90;;;;;;5051105;28;20229;-62
2023/03/15 04:37:30;;;;;;;3.63;2.90;;;6.30;99.90;;;;;;5057095;28;20236;-61
2023/03/15 04:40:49;;;;;;;8.40;3.23;;;6.50;99.90;;;;;;5015086;28;20231;-62
2023/03/15 04:43:58;;;;;;;8.10;3.30;;;6.50;99.90;;;;;;5065829;28;20576;-62
2023/03/15 04:47:04;;;;;;;6.20;3.10;;;6.50;99.90;;;;;;5049155;28;20659;-62
2023/03/15 04:50:19;;;;;;;6.10;2.83;;;6.40;99.90;;;;;;5048805;28;20255;-61
2023/03/15 04:53:17;;;;;;;7.37;3.03;;;6.40;99.90;;;;;;5059535;28;20240;-63
2023/03/15 04:56:13;;;;;;;6.87;2.97;;;6.30;99.90;;;;;;5052645;28;20358;-63
2023/03/15 04:59:29;;;;;;;7.07;3.13;;;6.20;99.90;;;;;;5062688;28;20239;-62
2023/03/15 05:02:40;;;;;;;8.43;3.20;;;6.30;99.90;;;;;;5058834;28;20215;-64
2023/03/15 05:05:43;;;;;;;8.43;3.20;;;6.50;99.90;;;;;;5056777;28;20223;-63
2023/03/15 05:08:45;;;;;;;8.43;3.27;;;6.40;99.90;;;;;;5046976;28;20239;-62
2023/03/15 05:11:58;;;;;;;8.67;3.07;;;6.40;99.90;;;;;;5055759;28;20325;-62
2023/03/15 05:15:27;;;;;;;8.23;3.00;;;6.30;99.90;;;;;;4999010;28;20218;-62
2023/03/15 05:18:55;;;;;;;6.97;3.20;;;6.40;99.90;;;;;;4991837;28;20213;-62
2023/03/15 05:22:13;;;;;;;7.97;3.00;;;6.30;99.90;;;;;;5058362;28;20220;-62
2023/03/15 05:25:35;;;;;;;6.97;3.37;;;6.30;99.90;;;;;;5022070;28;20223;-62
2023/03/15 05:28:28;;;;;;;8.83;3.43;;;6.30;99.90;;;;;;5054802;28;20575;-63
2023/03/15 05:31:35;;;;;;;9.30;3.60;;;6.30;99.90;;;;;;5053316;28;20234;-63
2023/03/15 05:34:43;;;;;;;10.80;3.07;;;6.40;99.90;;;;;;5055001;28;20212;-62
2023/03/15 05:38:07;;;;;;;7.50;3.43;;;6.40;99.90;;;;;;5018670;28;20209;-62
2023/03/15 05:41:23;;;;;;;9.80;3.67;;;6.40;99.90;;;;;;5045999;28;20252;-63
2023/03/15 05:44:21;;;;;;;9.20;4.03;;;6.40;99.90;;;;;;5060130;28;20731;-61
2023/03/15 05:47:32;;;;;;;8.40;4.67;;;6.30;99.90;;;;;;5046626;28;20239;-62
2023/03/15 05:50:22;;;;;;;9.17;5.13;;;6.30;99.90;;;;;;5060120;28;20223;-61
2023/03/15 05:53:10;;;;;;;11.50;4.93;;;6.30;99.90;;;;;;5059505;28;20230;-64
2023/03/15 05:56:23;;;;;;;11.73;5.40;;;6.20;99.90;;;;;;5036585;28;20339;-64
2023/03/15 05:59:36;;;;;;;11.27;4.90;;;6.30;99.90;;;;;;5046752;28;20262;-63
2023/03/15 06:02:24;;;;;;;9.63;5.30;;;6.40;99.90;;;;;;5059533;28;20244;-65
2023/03/15 06:05:33;;;;;;;10.50;5.50;;;6.40;99.90;;;;;;5056503;28;20302;-63
2023/03/15 06:08:24;;;;;;;14.60;5.33;;;6.40;99.90;;;;;;5046338;28;20233;-62
2023/03/15 06:11:14;;;;;;;12.20;5.30;;;6.40;99.90;;;;;;5058553;28;20733;-62
2023/03/15 06:14:03;;;;;;;12.97;5.77;;;6.30;99.90;;;;;;5057823;28;20246;-62
2023/03/15 06:16:58;;;;;;;12.73;5.63;;;6.30;99.90;;;;;;5061134;28;20224;-61
2023/03/15 06:19:49;;;;;;;12.73;6.30;;;6.40;99.90;;;;;;5043652;28;20595;-60
2023/03/15 06:22:39;;;;;;;11.93;5.23;;;6.50;99.90;;;;;;5047064;28;20698;-62
2023/03/15 06:25:38;;;;;;;15.93;5.60;;;6.60;99.90;;;;;;5058918;28;20212;-61
2023/03/15 06:28:27;;;;;;;12.43;5.30;;;6.70;99.90;;;;;;5060799;28;20296;-61
2023/03/15 06:31:19;;;;;;;12.00;5.23;;;6.50;99.90;;;;;;5047343;28;20718;-61
2023/03/15 06:34:14;;;;;;;11.70;5.30;;;6.40;99.90;;;;;;5039685;28;20220;-61
2023/03/15 06:37:03;;;;;;;9.00;4.97;;;6.40;99.90;;;;;;5060747;28;20375;-63
2023/03/15 06:39:55;;;;;;;10.27;4.90;;;6.40;99.90;;;;;;5048774;28;20440;-64
2023/03/15 06:42:44;;;;;;;11.57;5.47;;;6.30;99.90;;;;;;5045469;28;20221;-64
2023/03/15 06:45:35;;;;;;;10.60;5.27;;;6.20;99.90;;;;;;5045188;28;20224;-64
2023/03/15 06:48:25;;;;;;;13.83;6.30;;;6.40;99.90;;;;;;5054032;28;20287;-61
2023/03/15 06:51:14;;;;;;;12.33;5.53;;;6.30;99.90;;;;;;5052866;28;20707;-61
2023/03/15 06:54:03;;;;;;;14.67;5.73;;;6.60;99.90;;;;;;5045838;28;20308;-60
2023/03/15 06:56:55;;;;;;;8.30;5.73;;;6.50;99.90;;;;;;5041508;28;20232;-61
2023/03/15 06:59:44;;;;;;;11.33;5.93;;;6.50;99.90;;;;;;5058688;28;20232;-61
2023/03/15 07:02:36;;;;;;;11.30;6.17;;;6.60;99.90;;;;;;5061866;28;20235;-60
2023/03/15 07:05:25;;;;;;;9.37;6.37;;;6.70;99.90;;;;;;5059719;28;20232;-61
2023/03/15 07:08:14;;;;;;;12.43;5.77;;;6.40;99.90;;;;;;5056445;28;20216;-61
2023/03/15 07:11:03;;;;;;;21.37;8.97;;;6.60;99.90;;;;;;5059466;28;20225;-62
2023/03/15 07:13:53;;;;;;;16.43;6.83;;;6.80;99.90;;;;;;5059275;28;20227;-60
2023/03/15 07:16:42;;;;;;;14.53;6.70;;;6.80;99.90;;;;;;5047862;28;20603;-60
2023/03/15 07:19:31;;;;;;;11.30;6.63;;;6.60;99.90;;;;;;5061181;28;20780;-62
2023/03/15 07:22:21;;;;;;;14.83;7.57;;;6.60;99.90;;;;;;5059425;28;20226;-61
2023/03/15 07:25:10;;;;;;;13.07;7.37;;;6.60;99.90;;;;;;5059534;28;20300;-61
2023/03/15 07:27:59;;;;;;;33.50;15.30;;;6.60;99.90;;;;;;5059551;28;20227;-61
2023/03/15 07:30:57;;;;;;;17.43;9.50;;;6.70;99.90;;;;;;5055103;28;20685;-61
2023/03/15 07:33:46;;;;;;;21.33;9.13;;;6.70;99.90;;;;;;5056830;28;20243;-62
2023/03/15 07:36:35;;;;;;;13.57;7.37;;;6.70;99.90;;;;;;5061701;28;20764;-61
2023/03/15 07:39:25;;;;;;;16.70;8.30;;;6.60;99.90;;;;;;5051364;28;20259;-62
2023/03/15 07:42:14;;;;;;;16.20;8.20;;;6.60;99.90;;;;;;5055823;28;20564;-62
2023/03/15 07:45:11;;;;;;;14.83;8.80;;;6.70;99.90;;;;;;5055411;28;20228;-62
2023/03/15 07:48:02;;;;;;;18.30;8.00;;;6.60;99.90;;;;;;5044785;28;20275;-61
2023/03/15 07:50:50;;;;;;;13.20;8.17;;;6.80;99.90;;;;;;5056151;28;20224;-63
2023/03/15 07:53:39;;;;;;;17.57;8.37;;;6.90;99.90;;;;;;5057073;28;20232;-63
2023/03/15 07:56:28;;;;;;;15.97;8.47;;;6.80;99.90;;;;;;5061758;28;20216;-63
2023/03/15 07:59:17;;;;;;;15.80;8.87;;;6.70;99.90;;;;;;5059146;28;20700;-62
2023/03/15 08:02:06;;;;;;;17.10;8.30;;;6.80;99.90;;;;;;5041029;28;20561;-62
2023/03/15 08:04:57;;;;;;;12.20;7.53;;;6.80;99.90;;;;;;5056346;28;20231;-62
2023/03/15 08:07:46;;;;;;;16.13;7.90;;;7.00;99.90;;;;;;5061249;28;20313;-61
2023/03/15 08:10:35;;;;;;;12.97;7.13;;;7.20;99.90;;;;;;5057005;28;20303;-62
2023/03/15 08:13:24;;;;;;;16.17;6.63;;;7.20;99.90;;;;;;5063591;28;20240;-62
2023/03/15 08:16:13;;;;;;;11.93;6.13;;;7.40;99.90;;;;;;5052154;28;20323;-64
2023/03/15 08:19:02;;;;;;;13.47;6.77;;;7.80;99.90;;;;;;5060358;28;20231;-62
2023/03/15 08:21:52;;;;;;;10.87;6.00;;;8.30;99.90;;;;;;5056562;28;20230;-61
2023/03/15 08:24:41;;;;;;;13.83;6.80;;;8.70;99.90;;;;;;5055587;28;20780;-62
2023/03/15 08:27:30;;;;;;;16.53;7.57;;;8.80;99.90;;;;;;5052003;28;20311;-61
2023/03/15 08:30:20;;;;;;;12.83;6.10;;;8.90;99.90;;;;;;5058986;28;20990;-63
2023/03/15 08:33:11;;;;;;;10.25;6.43;;;8.80;99.90;;;;;;5053059;28;20216;-62
2023/03/15 08:36:00;;;;;;;10.98;6.25;;;8.50;99.90;;;;;;5050142;28;20230;-62
2023/03/15 08:38:51;;;;;;;16.58;6.10;;;8.80;99.90;;;;;;5064517;28;20740;-62
2023/03/15 08:41:40;;;;;;;11.23;5.90;;;8.90;99.90;;;;;;5052623;28;20223;-59
2023/03/15 08:44:29;;;;;;;10.17;5.03;;;8.50;99.90;;;;;;5062044;28;20599;-63
2023/03/15 08:47:18;;;;;;;11.30;4.60;;;8.20;99.90;;;;;;5060485;28;20228;-65
2023/03/15 08:50:09;;;;;;;13.60;5.35;;;8.30;99.90;;;;;;5052266;28;20319;-62
2023/03/15 08:52:59;;;;;;;15.00;6.35;;;8.40;99.90;;;;;;5049063;28;20305;-63
2023/03/15 08:55:49;;;;;;;12.27;5.70;;;8.40;99.90;;;;;;5060130;28;20442;-63
2023/03/15 08:58:38;;;;;;;12.15;5.90;;;8.50;99.90;;;;;;5053907;28;20216;-64
2023/03/15 09:01:29;;;;;;;12.25;4.97;;;8.40;99.90;;;;;;5041913;28;20584;-63
2023/03/15 09:04:18;;;;;;;8.80;4.93;;;8.50;99.90;;;;;;5029949;28;20232;-64
2023/03/15 09:07:07;;;;;;;13.05;4.72;;;8.60;99.90;;;;;;5041549;28;20217;-66
2023/03/15 09:09:56;;;;;;;12.93;5.30;;;8.60;99.90;;;;;;5026633;28;20247;-65
2023/03/15 09:12:48;;;;;;;14.90;5.72;;;8.20;99.90;;;;;;5039981;28;20281;-63
2023/03/15 09:15:36;;;;;;;9.00;4.88;;;8.20;99.90;;;;;;5028730;28;20231;-64
2023/03/15 09:18:25;;;;;;;11.57;5.35;;;8.20;99.90;;;;;;5042183;28;20229;-64
2023/03/15 09:21:14;;;;;;;12.75;4.88;;;8.30;99.90;;;;;;5036845;28;21152;-63
2023/03/15 09:24:03;;;;;;;11.57;6.10;;;8.50;99.90;;;;;;5040655;28;20229;-65
2023/03/15 09:26:42;;;;;;;10.45;4.72;;;8.70;99.90;;;;;;5071270;27;20628;-62
2023/03/15 09:29:31;;;;;;;11.63;4.57;;;8.70;99.90;;;;;;5038751;28;20240;-62
2023/03/15 09:32:20;;;;;;;10.70;4.65;;;8.90;99.90;;;;;;5055347;28;20314;-67
2023/03/15 09:35:13;;;;;;;11.60;4.35;;;8.60;99.90;;;;;;5055266;28;20324;-68
2023/03/15 09:38:02;;;;;;;11.52;4.50;;;8.80;99.90;;;;;;5055879;28;20235;-70
2023/03/15 09:40:56;;;;;;;10.75;3.88;;;8.90;99.90;;;;;;5053216;28;20239;-68
2023/03/15 09:44:04;;;;;;;14.07;4.80;;;8.60;99.90;;;;;;5057834;28;20242;-66
2023/03/15 09:47:08;;;;;;;7.47;4.05;;;8.50;99.90;;;;;;5056752;28;20243;-69
2023/03/15 09:50:02;;;;;;;9.85;4.18;;;8.60;99.90;;;;;;5052009;28;20223;-66
2023/03/15 09:52:56;;;;;;;8.73;4.00;;;8.70;99.90;;;;;;5055892;28;20220;-67
2023/03/15 09:55:48;;;;;;;10.00;4.25;;;8.60;99.90;;;;;;5054596;28;20220;-68
2023/03/15 09:58:36;;;;;;;11.32;4.47;;;8.70;99.90;;;;;;5054421;28;20219;-66
2023/03/15 10:01:31;;;;;;;9.23;4.72;;;8.60;99.90;;;;;;5066577;28;20220;-68
2023/03/15 10:04:29;;;;;;;10.25;4.75;;;8.70;99.90;;;;;;5077745;28;20211;-67
2023/03/15 10:07:18;;;;;;;10.32;4.80;;;8.70;99.90;;;;;;5060386;28;20218;-67
2023/03/15 10:10:14;;;;;;;11.70;4.85;;;8.70;99.90;;;;;;5081764;28;20227;-66
2023/03/15 10:13:18;;;;;;;9.30;4.68;;;8.60;99.90;;;;;;5080692;28;20290;-66
2023/03/15 10:16:20;;;;;;;11.23;4.95;;;8.60;99.90;;;;;;5062192;28;20227;-66
2023/03/15 10:19:23;;;;;;;11.07;4.30;;;8.70;99.90;;;;;;5061412;28;20797;-63
2023/03/15 10:22:21;;;;;;;9.88;4.53;;;8.50;99.90;;;;;;5073319;28;20773;-68
2023/03/15 10:25:22;;;;;;;11.63;4.70;;;8.80;99.90;;;;;;5073376;28;20227;-64
2023/03/15 10:28:14;;;;;;;8.50;4.20;;;9.00;99.90;;;;;;5076846;28;20363;-66
2023/03/15 10:31:13;;;;;;;11.07;4.20;;;8.80;99.90;;;;;;5071954;28;20238;-66
2023/03/15 10:34:22;;;;;;;11.80;4.57;;;9.00;99.90;;;;;;5072006;28;20227;-65
2023/03/15 10:37:11;;;;;;;11.98;4.63;;;9.10;99.90;;;;;;5064733;28;20228;-65
2023/03/15 10:40:01;;;;;;;13.68;4.78;;;8.90;99.90;;;;;;5052806;28;20243;-68
2023/03/15 10:42:49;;;;;;;10.57;4.40;;;9.20;99.90;;;;;;5037061;28;20308;-66
2023/03/15 10:45:39;;;;;;;11.93;4.53;;;9.40;99.90;;;;;;5075794;28;20217;-66
2023/03/15 10:48:30;;;;;;;8.98;4.55;;;9.70;99.90;;;;;;5057613;28;20476;-66
2023/03/15 10:51:24;;;;;;;9.00;4.10;;;9.60;99.90;;;;;;5046546;28;20216;-65
2023/03/15 10:54:16;;;;;;;50.67;27.75;;;9.30;99.90;;;;;;5067989;28;20224;-65
2023/03/15 10:57:12;;;;;;;10.85;4.93;;;9.00;99.90;;;;;;5049300;28;20216;-66
2023/03/15 11:00:08;;;;;;;11.88;4.28;;;8.80;99.90;;;;;;5061845;28;20220;-65
2023/03/15 11:03:05;;;;;;;10.18;3.88;;;8.90;99.90;;;;;;5059207;28;20710;-67
2023/03/15 11:05:56;;;;;;;11.18;4.43;;;8.90;99.90;;;;;;5057277;28;20587;-66
2023/03/15 11:08:46;;;;;;;13.07;4.28;;;8.90;99.90;;;;;;5061942;28;20309;-66
2023/03/15 11:11:59;;;;;;;9.27;4.63;;;9.00;99.90;;;;;;5060881;28;20224;-67
2023/03/15 11:14:50;;;;;;;13.43;4.50;;;9.20;99.90;;;;;;5074487;28;20587;-67
2023/03/15 11:17:44;;;;;;;14.23;4.18;;;9.10;99.90;;;;;;5084891;28;20230;-66
2023/03/15 11:20:36;;;;;;;17.25;4.60;;;9.10;99.90;;;;;;5099529;28;20483;-67
2023/03/15 11:23:29;;;;;;;21.73;4.68;;;9.20;99.90;;;;;;5078948;28;20239;-63
2023/03/15 11:26:21;;;;;;;15.20;4.60;;;9.40;99.90;;;;;;5082018;28;20223;-66
2023/03/15 11:29:23;;;;;;;14.55;4.25;;;9.30;99.90;;;;;;5084330;28;20215;-65
2023/03/15 11:32:15;;;;;;;15.48;4.00;;;9.60;99.90;;;;;;5086982;28;20292;-64
2023/03/15 11:35:06;;;;;;;14.30;4.50;;;9.60;99.90;;;;;;5079110;28;20223;-67
2023/03/15 11:38:00;;;;;;;14.02;4.10;;;9.70;99.90;;;;;;5086283;28;20286;-64
2023/03/15 11:41:10;;;;;;;11.20;4.22;;;9.70;99.90;;;;;;5083718;28;20717;-67
2023/03/15 11:44:10;;;;;;;14.65;4.10;;;9.80;99.90;;;;;;5071269;28;20289;-65
2023/03/15 11:47:04;;;;;;;7.45;3.08;;;9.80;99.90;;;;;;5079127;28;20254;-66
2023/03/15 11:49:54;;;;;;;7.75;3.10;;;9.80;99.90;;;;;;5076354;28;20306;-65
2023/03/15 11:52:43;;;;;;;8.27;3.30;;;9.70;99.90;;;;;;5083491;28;20744;-67
2023/03/15 11:55:33;;;;;;;8.35;3.38;;;9.50;99.90;;;;;;5083854;28;20675;-66
2023/03/15 11:58:31;;;;;;;7.93;4.32;;;9.50;99.90;;;;;;5083356;28;20633;-67
2023/03/15 12:01:26;;;;;;;12.45;4.30;;;9.50;99.90;;;;;;5075436;28;20227;-67
2023/03/15 12:04:44;;;;;;;11.20;4.63;;;9.70;99.90;;;;;;5081135;28;20335;-66
2023/03/15 12:07:58;;;;;;;11.15;5.03;;;9.40;99.90;;;;;;5081953;28;20734;-67
2023/03/15 12:10:49;;;;;;;10.57;4.85;;;9.20;99.90;;;;;;5081255;28;20306;-68
2023/03/15 12:13:38;;;;;;;10.00;4.72;;;9.10;99.90;;;;;;5094670;28;20235;-66
2023/03/15 12:16:33;;;;;;;12.40;5.40;;;9.40;99.90;;;;;;5087024;28;20219;-68
2023/03/15 12:19:34;;;;;;;19.73;13.35;;;9.20;99.90;;;;;;5081590;28;20223;-67
2023/03/15 12:22:26;;;;;;;9.82;5.95;;;9.20;99.90;;;;;;5079542;28;20875;-67
2023/03/15 12:25:19;;;;;;;9.48;4.78;;;9.30;99.90;;;;;;5082171;28;20224;-68
2023/03/15 12:28:18;;;;;;;9.35;4.70;;;9.10;99.90;;;;;;5077467;28;20598;-67
2023/03/15 12:31:11;;;;;;;8.85;5.53;;;9.20;99.90;;;;;;5075939;28;20239;-67
2023/03/15 12:34:06;;;;;;;10.45;5.78;;;9.20;99.90;;;;;;5079401;28;20265;-64
2023/03/15 12:36:59;;;;;;;26.88;14.68;;;9.30;99.90;;;;;;5082958;27;20632;-64
2023/03/15 12:39:51;;;;;;;9.65;4.93;;;9.40;99.90;;;;;;5079569;28;20223;-66
2023/03/15 12:43:07;;;;;;;10.40;5.13;;;9.40;99.90;;;;;;5081854;27;20315;-65
2023/03/15 12:45:56;;;;;;;12.80;6.78;;;9.50;99.90;;;;;;5075333;28;20224;-64
2023/03/15 12:49:11;;;;;;;9.80;5.13;;;9.40;99.90;;;;;;5079320;28;20231;-66
2023/03/15 12:52:02;;;;;;;10.02;5.07;;;9.20;99.90;;;;;;5082143;27;20227;-67
2023/03/15 12:54:58;;;;;;;10.50;5.55;;;9.10;99.90;;;;;;5082674;28;20270;-66
2023/03/15 12:57:52;;;;;;;9.82;5.13;;;9.20;99.90;;;;;;5079839;28;20211;-66
2023/03/15 13:00:42;;;;;;;14.77;4.97;;;9.20;99.90;;;;;;5077600;28;20230;-67
2023/03/15 13:03:35;;;;;;;9.32;4.95;;;9.10;99.90;;;;;;5093594;28;20510;-66
2023/03/15 13:06:38;;;;;;;13.23;5.35;;;9.20;99.90;;;;;;5078146;28;20314;-65
2023/03/15 13:09:52;;;;;;;7.70;4.65;;;9.20;99.90;;;;;;5084535;27;20242;-66
2023/03/15 13:12:45;;;;;;;14.38;4.90;;;9.30;99.90;;;;;;5079837;28;20223;-66
2023/03/15 13:15:41;;;;;;;9.45;4.90;;;9.20;99.90;;;;;;5083383;27;20220;-69
2023/03/15 13:18:36;;;;;;;10.25;5.05;;;9.20;99.90;;;;;;5081334;28;20337;-68
2023/03/15 13:21:32;;;;;;;10.13;5.03;;;9.10;99.90;;;;;;5073896;28;20242;-67
2023/03/15 13:24:27;;;;;;;9.23;4.32;;;9.10;99.90;;;;;;5080701;28;20755;-67
2023/03/15 13:27:28;;;;;;;9.45;3.53;;;9.00;99.90;;;;;;5081148;28;20307;-66
2023/03/15 13:30:34;;;;;;;11.05;4.25;;;9.00;99.90;;;;;;5108540;27;20905;-68
2023/03/15 13:33:25;;;;;;;8.88;4.20;;;9.20;99.90;;;;;;5081618;28;20265;-67
2023/03/15 13:36:16;;;;;;;10.18;5.03;;;9.40;99.90;;;;;;5092571;28;20234;-65
2023/03/15 13:39:12;;;;;;;10.90;4.75;;;9.30;99.90;;;;;;5082767;28;20251;-67
2023/03/15 13:42:03;;;;;;;7.75;4.68;;;9.20;99.90;;;;;;5078168;28;20225;-65
2023/03/15 13:45:11;;;;;;;15.05;5.22;;;9.20;99.90;;;;;;5081596;28;20219;-65
2023/03/15 13:48:04;;;;;;;10.40;5.43;;;9.10;99.90;;;;;;5082224;28;20231;-67
2023/03/15 13:50:55;;;;;;;12.57;5.60;;;9.20;99.90;;;;;;5080129;28;20227;-69
2023/03/15 13:53:46;;;;;;;13.45;4.97;;;9.00;99.90;;;;;;5065482;28;20544;-66
2023/03/15 13:56:47;;;;;;;8.60;3.90;;;8.90;99.90;;;;;;5079617;28;20212;-66
2023/03/15 13:59:41;;;;;;;12.35;4.18;;;8.80;99.90;;;;;;5074814;28;21033;-66
2023/03/15 14:02:37;;;;;;;9.35;4.35;;;8.90;99.90;;;;;;5080721;28;20686;-65
2023/03/15 14:05:29;;;;;;;7.57;4.00;;;8.80;99.90;;;;;;5076590;28;20690;-65
2023/03/15 14:08:22;;;;;;;9.15;4.68;;;8.70;99.90;;;;;;5092595;28;20599;-66
2023/03/15 14:11:18;;;;;;;11.68;4.93;;;8.70;99.90;;;;;;5079923;28;20705;-65
2023/03/15 14:14:23;;;;;;;9.88;5.65;;;8.70;99.90;;;;;;5094699;27;20265;-67
2023/03/15 14:17:24;;;;;;;16.77;6.63;;;8.50;99.90;;;;;;5080246;28;20217;-66
2023/03/15 14:20:16;;;;;;;11.07;5.68;;;8.70;99.90;;;;;;5079422;28;20219;-67
2023/03/15 14:23:06;;;;;;;14.23;5.60;;;8.60;99.90;;;;;;5083096;28;20572;-67
2023/03/15 14:26:02;;;;;;;12.32;5.53;;;8.60;99.90;;;;;;5083465;28;20250;-67
2023/03/15 14:28:54;;;;;;;13.32;5.40;;;8.60;99.90;;;;;;5083291;28;20730;-67
2023/03/15 14:31:50;;;;;;;53.13;6.60;;;8.70;99.90;;;;;;5088964;28;20333;-67
2023/03/15 14:34:45;;;;;;;13.05;5.90;;;8.80;99.90;;;;;;5094187;28;20219;-66
2023/03/15 14:37:38;;;;;;;11.07;5.90;;;8.50;99.90;;;;;;5083382;28;20673;-67
2023/03/15 14:40:33;;;;;;;13.00;5.10;;;8.30;99.90;;;;;;5083151;28;20215;-65
2023/03/15 14:43:22;;;;;;;12.00;5.63;;;8.20;99.90;;;;;;5084564;28;20756;-65
2023/03/15 14:46:11;;;;;;;11.40;5.95;;;8.10;99.90;;;;;;5093012;27;20316;-66
2023/03/15 14:49:02;;;;;;;10.00;5.60;;;8.10;99.90;;;;;;5096904;28;20228;-65
2023/03/15 14:51:55;;;;;;;9.95;5.38;;;8.00;99.90;;;;;;5095411;27;20523;-66
2023/03/15 14:54:48;;;;;;;10.73;5.32;;;8.00;99.90;;;;;;5079443;28;20234;-66
2023/03/15 14:57:37;;;;;;;12.18;5.47;;;7.90;99.90;;;;;;5080962;28;20235;-65
2023/03/15 15:00:26;;;;;;;9.52;5.20;;;8.00;99.90;;;;;;5078665;28;20538;-66
2023/03/15 15:03:18;;;;;;;11.15;5.47;;;8.10;99.90;;;;;;5081224;28;20598;-67
2023/03/15 15:06:14;;;;;;;47.78;30.38;;;8.40;99.90;;;;;;5075963;28;20222;-67
2023/03/15 15:09:05;;;;;;;10.05;4.97;;;8.30;99.90;;;;;;5084317;28;20231;-67
2023/03/15 15:11:54;;;;;;;11.18;4.65;;;8.30;99.90;;;;;;5110864;27;20260;-66
2023/03/15 15:14:43;;;;;;;11.23;3.97;;;8.30;99.90;;;;;;5085250;28;20282;-66